createdAt,value
2022-09-18T00:00:50.925Z,7.6
2022-09-18T00:01:51.678Z,7.5
2022-09-18T00:02:52.153Z,6.2
2022-09-18T00:03:52.719Z,6.1
2022-09-18T00:04:53.312Z,8.7
2022-09-18T00:05:53.903Z,5.0
2022-09-18T00:06:54.500Z,7.0
2022-09-18T00:07:55.092Z,6.6
2022-09-18T00:08:55.702Z,12.7
2022-09-18T00:09:56.294Z,4.8
2022-09-18T00:10:56.892Z,4.3
2022-09-18T00:11:57.508Z,7.5
2022-09-18T00:12:58.100Z,6.4
2022-09-18T00:13:58.701Z,12.3
2022-09-18T00:14:59.286Z,3.6
2022-09-18T00:15:59.929Z,7.4
2022-09-18T00:17:00.566Z,5.8
2022-09-18T00:18:01.103Z,8.0
2022-09-18T00:19:01.697Z,7.7
2022-09-18T00:20:02.294Z,5.6
2022-09-18T00:21:02.883Z,7.5
2022-09-18T00:22:03.478Z,7.2
2022-09-18T00:23:04.069Z,4.9
2022-09-18T00:24:04.661Z,6.7
2022-09-18T00:25:05.253Z,8.5
2022-09-18T00:26:05.847Z,6.3
2022-09-18T00:27:06.439Z,7.7
2022-09-18T00:28:07.031Z,9.6
2022-09-18T00:29:07.625Z,8.7
2022-09-18T00:30:08.217Z,9.3
2022-09-18T00:31:08.848Z,13.6
2022-09-18T00:32:09.477Z,6.5
2022-09-18T00:33:10.011Z,9.6
2022-09-18T00:34:10.605Z,5.3
2022-09-18T00:35:11.216Z,9.2
2022-09-18T00:36:11.809Z,3.1
2022-09-18T00:37:12.422Z,4.7
2022-09-18T00:38:13.012Z,9.6
2022-09-18T00:39:13.606Z,6.0
2022-09-18T00:40:14.289Z,5.4
2022-09-18T00:41:14.842Z,6.0
2022-09-18T00:42:15.434Z,8.0
2022-09-18T00:43:16.029Z,10.3
2022-09-18T00:44:16.622Z,7.0
2022-09-18T00:45:17.217Z,3.3
2022-09-18T00:46:17.881Z,3.8
2022-09-18T00:47:18.546Z,5.7
2022-09-18T00:48:19.092Z,9.3
2022-09-18T00:49:19.689Z,10.3
2022-09-18T00:50:20.282Z,5.2
2022-09-18T00:51:20.893Z,5.7
2022-09-18T00:52:21.483Z,5.7
2022-09-18T00:53:22.079Z,8.4
2022-09-18T00:54:22.669Z,9.7
2022-09-18T00:55:23.261Z,9.0
2022-09-18T00:56:23.855Z,7.2
2022-09-18T00:57:24.448Z,6.8
2022-09-18T00:58:25.039Z,6.3
2022-09-18T00:59:25.635Z,15.3
2022-09-18T01:00:26.227Z,5.8
2022-09-18T01:01:26.923Z,9.8
2022-09-18T01:02:27.753Z,7.6
2022-09-18T01:03:28.112Z,5.8
2022-09-18T01:04:28.703Z,6.7
2022-09-18T01:05:29.294Z,7.2
2022-09-18T01:06:29.889Z,8.7
2022-09-18T01:07:30.479Z,6.9
2022-09-18T01:08:31.071Z,11.0
2022-09-18T01:09:31.666Z,8.5
2022-09-18T01:10:32.279Z,4.7
2022-09-18T01:11:32.872Z,8.5
2022-09-18T01:12:33.460Z,5.5
2022-09-18T01:13:34.054Z,4.5
2022-09-18T01:14:34.645Z,4.8
2022-09-18T01:15:35.240Z,7.0
2022-09-18T01:16:35.904Z,5.7
2022-09-18T01:17:36.540Z,8.0
2022-09-18T01:18:37.071Z,9.5
2022-09-18T01:19:37.665Z,5.9
2022-09-18T01:20:38.256Z,6.8
2022-09-18T01:21:38.849Z,4.0
2022-09-18T01:22:39.441Z,8.2
2022-09-18T01:23:40.034Z,7.4
2022-09-18T01:24:40.625Z,5.0
2022-09-18T01:25:41.223Z,14.4
2022-09-18T01:26:41.814Z,8.4
2022-09-18T01:27:42.408Z,4.4
2022-09-18T01:28:43.000Z,9.6
2022-09-18T01:29:43.599Z,7.2
2022-09-18T01:30:44.188Z,5.7
2022-09-18T01:31:44.847Z,6.1
2022-09-18T01:32:45.508Z,6.9
2022-09-18T01:33:46.040Z,6.2
2022-09-18T01:34:46.631Z,8.5
2022-09-18T01:35:47.228Z,5.5
2022-09-18T01:36:47.818Z,7.6
2022-09-18T01:37:48.410Z,5.4
2022-09-18T01:38:49.005Z,8.3
2022-09-18T01:39:49.618Z,4.0
2022-09-18T01:40:50.209Z,6.0
2022-09-18T01:41:50.807Z,5.2
2022-09-18T01:42:51.394Z,4.6
2022-09-18T01:43:52.007Z,5.0
2022-09-18T01:44:52.600Z,5.9
2022-09-18T01:45:53.191Z,7.5
2022-09-18T01:46:53.838Z,6.8
2022-09-18T01:47:54.414Z,4.8
2022-09-18T01:48:55.009Z,8.2
2022-09-18T01:49:55.604Z,6.3
2022-09-18T01:50:56.195Z,6.3
2022-09-18T01:51:56.789Z,7.4
2022-09-18T01:52:57.399Z,5.5
2022-09-18T01:53:57.990Z,9.5
2022-09-18T01:54:58.584Z,4.4
2022-09-18T01:55:59.178Z,8.5
2022-09-18T01:56:59.773Z,10.7
2022-09-18T01:58:00.365Z,7.5
2022-09-18T01:59:00.985Z,6.3
2022-09-18T02:00:01.576Z,7.8
2022-09-18T02:01:02.188Z,3.4
2022-09-18T02:02:02.840Z,5.6
2022-09-18T02:03:03.518Z,4.9
2022-09-18T02:04:03.994Z,4.5
2022-09-18T02:05:04.588Z,9.8
2022-09-18T02:06:05.182Z,9.1
2022-09-18T02:07:05.773Z,7.3
2022-09-18T02:08:06.365Z,4.1
2022-09-18T02:09:06.961Z,6.2
2022-09-18T02:10:07.555Z,4.3
2022-09-18T02:11:08.146Z,6.8
2022-09-18T02:12:08.740Z,9.2
2022-09-18T02:13:09.333Z,6.5
2022-09-18T02:14:09.926Z,5.4
2022-09-18T02:15:10.520Z,6.5
2022-09-18T02:16:11.155Z,6.1
2022-09-18T02:17:11.709Z,7.3
2022-09-18T02:18:12.374Z,9.5
2022-09-18T02:19:12.909Z,9.1
2022-09-18T02:20:13.502Z,13.7
2022-09-18T02:21:14.100Z,11.1
2022-09-18T02:22:14.689Z,10.7
2022-09-18T02:23:15.281Z,8.1
2022-09-18T02:24:15.879Z,13.2
2022-09-18T02:25:16.468Z,8.8
2022-09-18T02:26:17.060Z,6.8
2022-09-18T02:27:17.656Z,12.5
2022-09-18T02:28:18.248Z,9.5
2022-09-18T02:29:18.842Z,7.9
2022-09-18T02:30:19.454Z,9.1
2022-09-18T02:31:20.150Z,6.0
2022-09-18T02:32:20.714Z,7.0
2022-09-18T02:33:21.392Z,10.7
2022-09-18T02:34:21.913Z,5.8
2022-09-18T02:35:22.507Z,7.7
2022-09-18T02:36:23.103Z,4.9
2022-09-18T02:37:23.693Z,8.4
2022-09-18T02:38:24.283Z,4.0
2022-09-18T02:39:24.878Z,8.4
2022-09-18T02:40:25.511Z,7.9
2022-09-18T02:41:26.076Z,9.2
2022-09-18T02:42:26.668Z,7.5
2022-09-18T02:43:27.261Z,3.7
2022-09-18T02:44:27.855Z,5.8
2022-09-18T02:45:28.468Z,6.1
2022-09-18T02:46:29.114Z,7.8
2022-09-18T02:47:29.659Z,11.1
2022-09-18T02:48:30.319Z,7.4
2022-09-18T02:49:30.857Z,10.0
2022-09-18T02:50:31.451Z,7.3
2022-09-18T02:51:32.041Z,4.6
2022-09-18T02:52:32.631Z,5.8
2022-09-18T02:53:33.225Z,5.5
2022-09-18T02:54:33.815Z,3.0
2022-09-18T02:55:34.409Z,9.8
2022-09-18T02:56:35.002Z,11.0
2022-09-18T02:57:35.596Z,10.2
2022-09-18T02:58:36.191Z,16.8
2022-09-18T02:59:36.787Z,7.3
2022-09-18T03:00:37.393Z,12.9
2022-09-18T03:01:38.054Z,9.7
2022-09-18T03:02:38.774Z,3.2
2022-09-18T03:03:39.426Z,5.7
2022-09-18T03:04:39.961Z,9.8
2022-09-18T03:05:40.556Z,6.1
2022-09-18T03:06:41.148Z,6.4
2022-09-18T03:07:41.761Z,7.9
2022-09-18T03:08:42.355Z,5.7
2022-09-18T03:09:42.948Z,7.7
2022-09-18T03:10:43.542Z,8.1
2022-09-18T03:11:44.137Z,3.5
2022-09-18T03:12:44.730Z,12.5
2022-09-18T03:13:45.327Z,8.3
2022-09-18T03:14:45.919Z,7.1
2022-09-18T03:15:46.576Z,5.9
2022-09-18T03:16:47.131Z,8.3
2022-09-18T03:17:47.744Z,6.4
2022-09-18T03:18:48.465Z,9.5
2022-09-18T03:19:48.947Z,4.5
2022-09-18T03:20:49.539Z,7.2
2022-09-18T03:21:50.134Z,4.3
2022-09-18T03:22:50.730Z,14.1
2022-09-18T03:23:51.325Z,11.5
2022-09-18T03:24:51.917Z,7.6
2022-09-18T03:25:52.518Z,14.4
2022-09-18T03:26:53.105Z,7.9
2022-09-18T03:27:53.702Z,6.2
2022-09-18T03:28:54.296Z,13.5
2022-09-18T03:29:54.895Z,10.1
2022-09-18T03:30:55.520Z,13.9
2022-09-18T03:31:56.209Z,7.6
2022-09-18T03:32:56.687Z,14.6
2022-09-18T03:33:57.350Z,8.8
2022-09-18T03:34:57.897Z,14.7
2022-09-18T03:35:58.484Z,8.0
2022-09-18T03:36:59.076Z,8.4
2022-09-18T03:37:59.671Z,5.7
2022-09-18T03:39:00.265Z,15.2
2022-09-18T03:40:00.951Z,10.4
2022-09-18T03:41:01.502Z,7.7
2022-09-18T03:42:02.093Z,9.6
2022-09-18T03:43:02.685Z,8.7
2022-09-18T03:44:03.294Z,11.2
2022-09-18T03:45:03.873Z,10.5
2022-09-18T03:46:04.514Z,9.9
2022-09-18T03:47:05.079Z,9.1
2022-09-18T03:48:05.674Z,11.5
2022-09-18T03:49:06.339Z,6.2
2022-09-18T03:50:06.875Z,11.7
2022-09-18T03:51:07.469Z,11.2
2022-09-18T03:52:08.064Z,8.2
2022-09-18T03:53:08.661Z,10.8
2022-09-18T03:54:09.257Z,9.3
2022-09-18T03:55:09.845Z,11.0
2022-09-18T03:56:10.439Z,10.8
2022-09-18T03:57:11.033Z,10.8
2022-09-18T03:58:11.626Z,10.9
2022-09-18T03:59:12.219Z,9.1
2022-09-18T04:00:12.813Z,6.6
2022-09-18T04:01:13.406Z,5.1
2022-09-18T04:02:14.061Z,9.5
2022-09-18T04:03:14.677Z,11.0
2022-09-18T04:04:15.303Z,6.1
2022-09-18T04:05:15.848Z,5.4
2022-09-18T04:06:16.441Z,11.9
2022-09-18T04:07:17.034Z,9.5
2022-09-18T04:08:17.630Z,7.6
2022-09-18T04:09:18.239Z,7.6
2022-09-18T04:10:18.831Z,8.3
2022-09-18T04:11:19.424Z,8.7
2022-09-18T04:12:20.019Z,8.0
2022-09-18T04:13:20.611Z,8.8
2022-09-18T04:14:21.203Z,8.6
2022-09-18T04:15:21.795Z,14.5
2022-09-18T04:16:22.455Z,7.7
2022-09-18T04:17:23.049Z,13.9
2022-09-18T04:18:23.641Z,9.4
2022-09-18T04:19:24.299Z,8.0
2022-09-18T04:20:24.847Z,11.1
2022-09-18T04:21:25.442Z,12.4
2022-09-18T04:22:26.034Z,5.8
2022-09-18T04:23:26.624Z,9.5
2022-09-18T04:24:27.220Z,10.5
2022-09-18T04:25:27.809Z,3.5
2022-09-18T04:26:28.403Z,11.6
2022-09-18T04:27:28.998Z,9.8
2022-09-18T04:28:29.604Z,9.5
2022-09-18T04:29:30.178Z,8.5
2022-09-18T04:30:30.772Z,9.4
2022-09-18T04:31:31.391Z,9.2
2022-09-18T04:32:31.956Z,9.6
2022-09-18T04:33:32.568Z,10.0
2022-09-18T04:34:33.232Z,7.4
2022-09-18T04:35:33.770Z,9.8
2022-09-18T04:36:34.360Z,9.8
2022-09-18T04:37:34.952Z,7.3
2022-09-18T04:38:35.548Z,12.5
2022-09-18T04:39:36.142Z,11.4
2022-09-18T04:40:36.781Z,11.3
2022-09-18T04:41:37.346Z,11.7
2022-09-18T04:42:37.939Z,9.3
2022-09-18T04:43:38.533Z,8.7
2022-09-18T04:44:39.127Z,6.1
2022-09-18T04:45:39.719Z,10.3
2022-09-18T04:46:40.354Z,9.1
2022-09-18T04:47:40.926Z,15.0
2022-09-18T04:48:41.517Z,14.3
2022-09-18T04:49:42.180Z,9.7
2022-09-18T04:50:42.718Z,11.3
2022-09-18T04:51:43.311Z,8.5
2022-09-18T04:52:43.925Z,14.2
2022-09-18T04:53:44.518Z,9.2
2022-09-18T04:54:45.115Z,13.2
2022-09-18T04:55:45.709Z,7.1
2022-09-18T04:56:46.307Z,13.8
2022-09-18T04:57:50.045Z,13.8
2022-09-18T04:58:48.499Z,10.1
2022-09-18T04:59:49.089Z,9.2
2022-09-18T05:00:49.720Z,9.9
2022-09-18T05:01:50.335Z,9.0
2022-09-18T05:02:50.890Z,12.1
2022-09-18T05:03:51.554Z,4.4
2022-09-18T05:04:52.166Z,12.8
2022-09-18T05:05:52.714Z,10.5
2022-09-18T05:06:53.313Z,10.3
2022-09-18T05:07:53.909Z,7.5
2022-09-18T05:08:54.527Z,12.9
2022-09-18T05:09:55.124Z,8.4
2022-09-18T05:10:55.722Z,7.1
2022-09-18T05:11:56.318Z,8.1
2022-09-18T05:12:56.919Z,7.1
2022-09-18T05:13:57.513Z,8.5
2022-09-18T05:14:58.110Z,11.7
2022-09-18T05:15:58.855Z,11.4
2022-09-18T05:16:59.446Z,8.0
2022-09-18T05:18:00.066Z,5.9
2022-09-18T05:19:00.666Z,5.5
2022-09-18T05:20:01.336Z,9.9
2022-09-18T05:21:01.888Z,8.3
2022-09-18T05:22:02.483Z,6.0
2022-09-18T05:23:03.082Z,6.6
2022-09-18T05:24:03.686Z,8.3
2022-09-18T05:25:04.282Z,5.2
2022-09-18T05:26:04.883Z,11.0
2022-09-18T05:27:05.478Z,9.4
2022-09-18T05:28:06.078Z,10.5
2022-09-18T05:29:06.676Z,9.1
2022-09-18T05:30:07.274Z,7.4
2022-09-18T05:31:07.926Z,13.6
2022-09-18T05:32:08.509Z,10.2
2022-09-18T05:33:09.109Z,8.7
2022-09-18T05:34:09.708Z,8.6
2022-09-18T05:35:10.387Z,12.0
2022-09-18T05:36:10.923Z,11.6
2022-09-18T05:37:11.538Z,12.2
2022-09-18T05:38:12.134Z,6.8
2022-09-18T05:39:17.295Z,6.8
2022-09-18T05:40:14.404Z,4.7
2022-09-18T05:41:14.982Z,9.0
2022-09-18T05:42:15.579Z,6.5
2022-09-18T05:43:16.179Z,6.4
2022-09-18T05:44:16.779Z,7.9
2022-09-18T05:45:17.379Z,8.8
2022-09-18T05:46:18.022Z,7.7
2022-09-18T05:47:18.579Z,8.9
2022-09-18T05:48:19.198Z,6.7
2022-09-18T05:49:19.807Z,9.7
2022-09-18T05:50:20.464Z,8.3
2022-09-18T05:51:21.020Z,8.8
2022-09-18T05:52:21.616Z,9.7
2022-09-18T05:53:22.217Z,6.8
2022-09-18T05:54:22.815Z,7.7
2022-09-18T05:55:23.416Z,5.9
2022-09-18T05:56:24.014Z,8.7
2022-09-18T05:57:24.616Z,7.5
2022-09-18T05:58:25.213Z,6.3
2022-09-18T05:59:25.816Z,7.5
2022-09-18T06:00:26.410Z,6.5
2022-09-18T06:01:27.062Z,7.6
2022-09-18T06:02:27.653Z,8.3
2022-09-18T06:03:28.282Z,6.1
2022-09-18T06:04:28.882Z,6.9
2022-09-18T06:05:29.554Z,6.8
2022-09-18T06:06:30.096Z,6.2
2022-09-18T06:07:30.690Z,7.4
2022-09-18T06:08:31.290Z,6.5
2022-09-18T06:09:31.890Z,3.5
2022-09-18T06:10:32.506Z,9.3
2022-09-18T06:11:33.102Z,7.9
2022-09-18T06:12:33.703Z,7.5
2022-09-18T06:13:34.300Z,9.2
2022-09-18T06:14:34.900Z,6.6
2022-09-18T06:15:35.500Z,7.7
2022-09-18T06:16:41.333Z,11.3
2022-09-18T06:17:37.691Z,8.2
2022-09-18T06:18:38.289Z,9.0
2022-09-18T06:19:38.890Z,7.2
2022-09-18T06:20:39.563Z,8.1
2022-09-18T06:21:40.100Z,6.0
2022-09-18T06:22:40.702Z,6.4
2022-09-18T06:23:41.303Z,3.5
2022-09-18T06:24:41.900Z,4.6
2022-09-18T06:25:42.497Z,8.6
2022-09-18T06:26:43.100Z,13.4
2022-09-18T06:27:43.697Z,4.2
2022-09-18T06:28:44.306Z,5.8
2022-09-18T06:29:44.896Z,3.1
2022-09-18T06:30:45.499Z,5.2
2022-09-18T06:31:46.173Z,5.3
2022-09-18T06:32:46.727Z,6.0
2022-09-18T06:33:47.329Z,4.0
2022-09-18T06:34:47.923Z,9.7
2022-09-18T06:35:48.591Z,1.9
2022-09-18T06:36:49.140Z,6.4
2022-09-18T06:37:49.738Z,7.3
2022-09-18T06:38:50.337Z,5.0
2022-09-18T06:39:50.937Z,1.9
2022-09-18T06:40:51.558Z,9.2
2022-09-18T06:41:52.173Z,3.8
2022-09-18T06:42:52.773Z,5.6
2022-09-18T06:43:53.371Z,3.9
2022-09-18T06:44:53.974Z,3.6
2022-09-18T06:45:54.590Z,6.3
2022-09-18T06:46:55.257Z,6.2
2022-09-18T06:47:55.827Z,6.5
2022-09-18T06:48:56.429Z,4.0
2022-09-18T06:49:57.030Z,4.6
2022-09-18T06:50:57.703Z,6.9
2022-09-18T06:51:58.244Z,4.1
2022-09-18T06:52:58.866Z,2.9
2022-09-18T06:53:59.463Z,6.7
2022-09-18T06:55:00.091Z,5.1
2022-09-18T06:56:00.663Z,4.7
2022-09-18T06:57:01.264Z,3.7
2022-09-18T06:58:01.868Z,3.6
2022-09-18T06:59:02.464Z,7.4
2022-09-18T07:00:04.938Z,6.1
2022-09-18T07:01:04.688Z,8.5
2022-09-18T07:02:05.327Z,5.0
2022-09-18T07:03:05.897Z,2.7
2022-09-18T07:04:06.496Z,4.5
2022-09-18T07:05:07.097Z,6.4
2022-09-18T07:06:07.769Z,5.0
2022-09-18T07:07:08.312Z,5.9
2022-09-18T07:08:08.911Z,7.5
2022-09-18T07:09:09.511Z,4.4
2022-09-18T07:10:10.110Z,4.2
2022-09-18T07:11:10.709Z,6.7
2022-09-18T07:12:11.309Z,3.9
2022-09-18T07:13:11.907Z,3.6
2022-09-18T07:14:12.514Z,5.3
2022-09-18T07:15:13.108Z,5.8
2022-09-18T07:16:13.759Z,3.9
2022-09-18T07:17:18.245Z,7.7
2022-09-18T07:18:15.937Z,7.7
2022-09-18T07:19:16.540Z,8.2
2022-09-18T07:20:17.158Z,4.4
2022-09-18T07:21:17.832Z,3.4
2022-09-18T07:22:18.371Z,6.1
2022-09-18T07:23:18.974Z,5.2
2022-09-18T07:24:19.573Z,4.3
2022-09-18T07:25:20.177Z,5.0
2022-09-18T07:26:20.776Z,4.7
2022-09-18T07:27:21.376Z,3.5
2022-09-18T07:28:21.976Z,9.3
2022-09-18T07:29:22.576Z,8.2
2022-09-18T07:30:23.175Z,5.4
2022-09-18T07:31:23.864Z,3.0
2022-09-18T07:32:24.435Z,9.3
2022-09-18T07:33:25.036Z,7.5
2022-09-18T07:34:25.634Z,5.3
2022-09-18T07:35:26.235Z,7.9
2022-09-18T07:36:26.898Z,3.1
2022-09-18T07:37:27.449Z,4.8
2022-09-18T07:38:28.048Z,3.5
2022-09-18T07:39:28.648Z,9.5
2022-09-18T07:40:29.298Z,3.3
2022-09-18T07:41:29.922Z,4.3
2022-09-18T07:42:30.519Z,6.9
2022-09-18T07:43:31.123Z,4.1
2022-09-18T07:44:31.739Z,6.8
2022-09-18T07:45:32.339Z,3.4
2022-09-18T07:46:33.039Z,6.3
2022-09-18T07:47:33.633Z,7.4
2022-09-18T07:48:34.231Z,5.4
2022-09-18T07:49:34.833Z,6.5
2022-09-18T07:50:35.455Z,4.8
2022-09-18T07:51:36.131Z,5.3
2022-09-18T07:52:36.670Z,4.3
2022-09-18T07:53:37.272Z,4.3
2022-09-18T07:54:37.871Z,7.5
2022-09-18T07:55:38.473Z,3.8
2022-09-18T07:56:41.582Z,8.9
2022-09-18T07:57:40.663Z,4.4
2022-09-18T07:58:41.261Z,8.1
2022-09-18T07:59:41.861Z,4.1
2022-09-18T08:00:42.459Z,5.4
2022-09-18T08:01:43.170Z,5.5
2022-09-18T08:02:43.907Z,4.3
2022-09-18T08:03:44.413Z,9.4
2022-09-18T08:04:45.013Z,5.8
2022-09-18T08:05:45.614Z,3.7
2022-09-18T08:06:46.284Z,5.6
2022-09-18T08:07:46.836Z,8.0
2022-09-18T08:08:49.790Z,5.3
2022-09-18T08:09:48.052Z,8.1
2022-09-18T08:10:48.649Z,2.9
2022-09-18T08:11:49.252Z,7.2
2022-09-18T08:12:49.851Z,4.6
2022-09-18T08:13:50.452Z,4.2
2022-09-18T08:14:51.052Z,5.1
2022-09-18T08:15:51.712Z,4.9
2022-09-18T08:16:52.257Z,8.8
2022-09-18T08:17:52.858Z,5.1
2022-09-18T08:18:53.463Z,5.3
2022-09-18T08:19:54.062Z,5.5
2022-09-18T08:20:54.661Z,7.6
2022-09-18T08:21:55.332Z,4.2
2022-09-18T08:22:55.876Z,3.7
2022-09-18T08:23:56.478Z,3.9
2022-09-18T08:24:57.078Z,6.6
2022-09-18T08:25:57.679Z,4.4
2022-09-18T08:26:58.275Z,3.3
2022-09-18T08:27:58.879Z,6.0
2022-09-18T08:28:59.475Z,4.0
2022-09-18T08:30:00.079Z,4.3
2022-09-18T08:31:00.719Z,7.6
2022-09-18T08:32:02.153Z,5.9
2022-09-18T08:33:02.874Z,4.4
2022-09-18T08:34:03.477Z,3.8
2022-09-18T08:35:04.072Z,2.9
2022-09-18T08:36:04.677Z,4.3
2022-09-18T08:37:05.344Z,9.9
2022-09-18T08:38:05.887Z,5.0
2022-09-18T08:39:06.485Z,3.9
2022-09-18T08:40:07.173Z,6.1
2022-09-18T08:41:07.715Z,4.7
2022-09-18T08:42:08.317Z,6.0
2022-09-18T08:43:08.915Z,2.6
2022-09-18T08:44:09.517Z,6.7
2022-09-18T08:45:10.136Z,4.5
2022-09-18T08:46:10.749Z,6.9
2022-09-18T08:47:11.335Z,3.3
2022-09-18T08:48:11.934Z,5.9
2022-09-18T08:49:12.536Z,3.5
2022-09-18T08:50:13.136Z,5.3
2022-09-18T08:51:13.756Z,3.5
2022-09-18T08:52:14.430Z,3.9
2022-09-18T08:53:14.968Z,4.2
2022-09-18T08:54:15.569Z,3.7
2022-09-18T08:55:16.169Z,2.5
2022-09-18T08:56:16.770Z,3.1
2022-09-18T08:57:17.370Z,6.4
2022-09-18T08:58:17.968Z,2.3
2022-09-18T08:59:18.566Z,3.9
2022-09-18T09:00:19.212Z,4.3
2022-09-18T09:01:19.886Z,2.5
2022-09-18T09:02:24.850Z,2.4
2022-09-18T09:03:22.029Z,2.3
2022-09-18T09:04:22.629Z,4.6
2022-09-18T09:05:23.229Z,3.1
2022-09-18T09:06:23.848Z,1.4
2022-09-18T09:07:24.519Z,5.0
2022-09-18T09:08:25.062Z,4.2
2022-09-18T09:09:25.662Z,2.3
2022-09-18T09:10:26.262Z,3.2
2022-09-18T09:11:26.861Z,4.8
2022-09-18T09:12:27.463Z,3.0
2022-09-18T09:13:28.060Z,2.3
2022-09-18T09:14:52.848Z,2.4
2022-09-18T09:15:30.254Z,2.5
2022-09-18T09:16:30.902Z,4.9
2022-09-18T09:17:31.473Z,3.8
2022-09-18T09:18:32.073Z,2.4
2022-09-18T09:19:32.671Z,1.5
2022-09-18T09:20:33.272Z,5.1
2022-09-18T09:21:33.870Z,2.7
2022-09-18T09:22:34.539Z,2.9
2022-09-18T09:23:35.086Z,2.9
2022-09-18T09:24:35.694Z,2.4
2022-09-18T09:25:36.306Z,5.0
2022-09-18T09:26:36.904Z,3.2
2022-09-18T09:27:37.503Z,2.8
2022-09-18T09:28:38.123Z,2.6
2022-09-18T09:29:38.719Z,2.5
2022-09-18T09:30:39.320Z,5.7
2022-09-18T09:31:39.992Z,1.6
2022-09-18T09:32:40.579Z,3.3
2022-09-18T09:33:41.179Z,1.5
2022-09-18T09:34:41.780Z,4.8
2022-09-18T09:35:42.382Z,5.8
2022-09-18T09:36:42.978Z,1.1
2022-09-18T09:37:43.656Z,2.7
2022-09-18T09:38:44.192Z,1.9
2022-09-18T09:39:44.788Z,3.1
2022-09-18T09:40:45.478Z,4.5
2022-09-18T09:41:46.054Z,2.1
2022-09-18T09:42:46.654Z,3.0
2022-09-18T09:43:47.256Z,4.9
2022-09-18T09:44:47.871Z,0.7
2022-09-18T09:45:48.468Z,0.9
2022-09-18T09:46:49.137Z,2.3
2022-09-18T09:47:49.729Z,4.3
2022-09-18T09:48:50.417Z,1.8
2022-09-18T09:49:50.953Z,1.0
2022-09-18T09:50:51.573Z,1.8
2022-09-18T09:51:52.173Z,3.7
2022-09-18T09:52:52.848Z,1.4
2022-09-18T09:53:53.391Z,1.5
2022-09-18T09:54:53.993Z,3.3
2022-09-18T09:55:54.593Z,1.9
2022-09-18T09:56:55.195Z,2.3
2022-09-18T09:57:55.797Z,1.5
2022-09-18T09:58:56.396Z,1.3
2022-09-18T09:59:56.996Z,1.4
2022-09-18T10:00:57.632Z,4.9
2022-09-18T10:01:58.293Z,0.9
2022-09-18T10:02:58.842Z,1.6
2022-09-18T10:03:59.441Z,2.7
2022-09-18T10:05:00.065Z,0.8
2022-09-18T10:06:00.643Z,2.2
2022-09-18T10:07:01.245Z,1.3
2022-09-18T10:08:01.916Z,1.0
2022-09-18T10:09:02.484Z,1.4
2022-09-18T10:10:03.058Z,2.1
2022-09-18T10:11:03.662Z,2.4
2022-09-18T10:12:04.266Z,3.8
2022-09-18T10:13:04.859Z,1.6
2022-09-18T10:14:05.460Z,1.9
2022-09-18T10:15:06.060Z,2.7
2022-09-18T10:16:06.733Z,1.2
2022-09-18T10:17:07.272Z,1.8
2022-09-18T10:18:07.871Z,2.0
2022-09-18T10:19:08.493Z,1.0
2022-09-18T10:20:09.094Z,1.6
2022-09-18T10:21:09.694Z,2.0
2022-09-18T10:22:10.294Z,2.1
2022-09-18T10:23:10.961Z,4.0
2022-09-18T10:24:11.509Z,4.1
2022-09-18T10:25:12.133Z,3.6
2022-09-18T10:26:12.730Z,2.0
2022-09-18T10:27:13.326Z,3.8
2022-09-18T10:28:13.941Z,3.0
2022-09-18T10:29:14.529Z,2.0
2022-09-18T10:30:15.130Z,3.5
2022-09-18T10:31:15.782Z,3.2
2022-09-18T10:32:16.349Z,4.0
2022-09-18T10:33:16.946Z,2.0
2022-09-18T10:34:17.547Z,4.0
2022-09-18T10:35:18.146Z,3.9
2022-09-18T10:36:18.748Z,5.6
2022-09-18T10:37:19.345Z,2.6
2022-09-18T10:38:20.011Z,1.7
2022-09-18T10:39:20.560Z,3.1
2022-09-18T10:40:21.298Z,4.2
2022-09-18T10:41:21.844Z,3.0
2022-09-18T10:42:22.450Z,1.5
2022-09-18T10:43:23.061Z,1.3
2022-09-18T10:44:23.663Z,1.9
2022-09-18T10:45:24.263Z,3.0
2022-09-18T10:46:24.932Z,2.8
2022-09-18T10:47:25.496Z,2.1
2022-09-18T10:48:26.096Z,2.4
2022-09-18T10:49:26.694Z,3.4
2022-09-18T10:50:30.297Z,2.9
2022-09-18T10:51:28.884Z,2.7
2022-09-18T10:52:29.488Z,2.5
2022-09-18T10:53:30.182Z,1.3
2022-09-18T10:54:30.722Z,2.0
2022-09-18T10:55:31.323Z,2.2
2022-09-18T10:56:31.923Z,4.5
2022-09-18T10:57:32.522Z,3.1
2022-09-18T10:58:33.126Z,4.8
2022-09-18T10:59:33.740Z,1.6
2022-09-18T11:00:34.361Z,2.3
2022-09-18T11:01:34.980Z,2.7
2022-09-18T11:02:35.610Z,2.0
2022-09-18T11:03:36.192Z,5.4
2022-09-18T11:04:36.795Z,3.0
2022-09-18T11:05:37.394Z,2.6
2022-09-18T11:06:37.994Z,1.3
2022-09-18T11:07:38.589Z,3.4
2022-09-18T11:08:39.256Z,2.3
2022-09-18T11:09:39.808Z,2.1
2022-09-18T11:10:40.407Z,1.6
2022-09-18T11:11:41.008Z,1.2
2022-09-18T11:12:41.605Z,1.7
2022-09-18T11:13:42.225Z,2.1
2022-09-18T11:14:42.827Z,3.2
2022-09-18T11:15:43.426Z,1.1
2022-09-18T11:16:44.071Z,1.9
2022-09-18T11:17:44.656Z,1.5
2022-09-18T11:18:45.260Z,0.8
2022-09-18T11:19:45.857Z,1.1
2022-09-18T11:20:46.458Z,1.4
2022-09-18T11:21:47.056Z,1.6
2022-09-18T11:22:47.657Z,3.7
2022-09-18T11:23:48.325Z,1.2
2022-09-18T11:24:48.869Z,1.1
2022-09-18T11:25:49.469Z,1.8
2022-09-18T11:26:50.070Z,0.9
2022-09-18T11:27:50.671Z,0.8
2022-09-18T11:28:51.271Z,1.3
2022-09-18T11:29:51.871Z,5.1
2022-09-18T11:30:52.470Z,1.6
2022-09-18T11:31:53.157Z,2.7
2022-09-18T11:32:53.726Z,2.9
2022-09-18T11:33:54.323Z,1.1
2022-09-18T11:34:54.941Z,2.2
2022-09-18T11:35:55.540Z,1.1
2022-09-18T11:36:56.139Z,1.5
2022-09-18T11:37:56.737Z,2.0
2022-09-18T11:38:57.402Z,0.8
2022-09-18T11:39:58.021Z,1.8
2022-09-18T11:40:58.587Z,1.4
2022-09-18T11:41:59.218Z,0.8
2022-09-18T11:42:59.785Z,0.6
2022-09-18T11:44:00.380Z,1.2
2022-09-18T11:45:00.980Z,1.3
2022-09-18T11:46:01.578Z,1.1
2022-09-18T11:47:02.230Z,1.2
2022-09-18T11:48:02.797Z,0.4
2022-09-18T11:49:04.829Z,1.9
2022-09-18T11:50:05.000Z,1.5
2022-09-18T11:51:05.618Z,0.7
2022-09-18T11:52:06.215Z,2.2
2022-09-18T11:53:06.813Z,1.6
2022-09-18T11:54:07.484Z,1.2
2022-09-18T11:55:08.027Z,1.3
2022-09-18T11:56:08.643Z,1.0
2022-09-18T11:57:09.245Z,0.7
2022-09-18T11:58:09.844Z,0.4
2022-09-18T11:59:10.446Z,0.6
2022-09-18T12:00:11.066Z,1.1
2022-09-18T12:01:11.667Z,1.8
2022-09-18T12:02:12.326Z,2.2
2022-09-18T12:03:12.986Z,2.6
2022-09-18T12:04:13.500Z,2.6
2022-09-18T12:05:14.102Z,0.8
2022-09-18T12:06:14.702Z,1.0
2022-09-18T12:07:15.302Z,2.2
2022-09-18T12:08:14.544Z,1.0
2022-09-18T12:09:15.209Z,1.3
2022-09-18T12:10:15.767Z,2.3
2022-09-18T12:11:16.365Z,2.9
2022-09-18T12:12:16.964Z,2.0
2022-09-18T12:13:17.566Z,1.1
2022-09-18T12:14:18.163Z,2.8
2022-09-18T12:15:18.763Z,1.4
2022-09-18T12:16:19.459Z,2.2
2022-09-18T12:17:20.019Z,1.8
2022-09-18T12:18:20.619Z,1.0
2022-09-18T12:19:21.219Z,1.5
2022-09-18T12:20:21.816Z,1.3
2022-09-18T12:21:22.417Z,1.6
2022-09-18T12:22:23.015Z,1.5
2022-09-18T12:23:23.615Z,3.0
2022-09-18T12:24:24.284Z,0.6
2022-09-18T12:25:24.825Z,1.8
2022-09-18T12:26:25.431Z,0.7
2022-09-18T12:27:27.759Z,0.8
2022-09-18T12:28:26.642Z,1.0
2022-09-18T12:29:27.239Z,1.2
2022-09-18T12:30:27.837Z,1.7
2022-09-18T12:31:28.455Z,0.7
2022-09-18T12:32:29.034Z,0.5
2022-09-18T12:33:33.988Z,1.0
2022-09-18T12:34:31.227Z,1.8
2022-09-18T12:35:31.826Z,0.8
2022-09-18T12:36:32.426Z,1.7
2022-09-18T12:37:33.026Z,1.6
2022-09-18T12:38:33.625Z,1.1
2022-09-18T12:39:34.964Z,1.9
2022-09-18T12:40:35.571Z,1.5
2022-09-18T12:41:36.118Z,0.8
2022-09-18T12:42:36.715Z,0.9
2022-09-18T12:43:37.313Z,2.5
2022-09-18T12:44:37.914Z,2.6
2022-09-18T12:45:38.556Z,0.7
2022-09-18T12:46:39.113Z,3.2
2022-09-18T12:47:39.712Z,3.4
2022-09-18T12:48:40.312Z,0.9
2022-09-18T12:49:40.910Z,0.7
2022-09-18T12:50:41.509Z,0.8
2022-09-18T12:51:42.108Z,1.7
2022-09-18T12:53:00.299Z,1.7
2022-09-18T12:53:44.320Z,1.0
2022-09-18T12:54:44.986Z,1.9
2022-09-18T12:55:45.541Z,0.9
2022-09-18T12:56:46.159Z,2.0
2022-09-18T12:57:46.759Z,1.1
2022-09-18T12:58:47.361Z,1.3
2022-09-18T12:59:47.959Z,0.8
2022-09-18T13:00:48.587Z,0.6
2022-09-18T13:01:49.159Z,1.6
2022-09-18T13:02:51.525Z,1.6
2022-09-18T13:03:51.349Z,1.0
2022-09-18T13:04:51.950Z,2.8
2022-09-18T13:05:52.569Z,0.9
2022-09-18T13:06:53.165Z,0.9
2022-09-18T13:07:53.764Z,1.5
2022-09-18T13:08:54.363Z,1.0
2022-09-18T13:09:55.028Z,1.0
2022-09-18T13:10:55.582Z,3.0
2022-09-18T13:11:56.186Z,1.6
2022-09-18T13:12:56.779Z,2.5
2022-09-18T13:13:57.387Z,3.7
2022-09-18T13:14:57.980Z,2.5
2022-09-18T13:15:58.608Z,0.7
2022-09-18T13:16:59.914Z,1.0
2022-09-18T13:18:00.512Z,0.9
2022-09-18T13:19:01.113Z,4.5
2022-09-18T13:20:01.737Z,1.1
2022-09-18T13:21:02.306Z,1.4
2022-09-18T13:22:02.906Z,3.1
2022-09-18T13:23:03.504Z,1.6
2022-09-18T13:24:04.150Z,4.5
2022-09-18T13:25:04.806Z,0.6
2022-09-18T13:26:05.348Z,0.8
2022-09-18T13:27:05.946Z,1.1
2022-09-18T13:28:06.549Z,1.0
2022-09-18T13:29:07.148Z,0.9
2022-09-18T13:30:07.750Z,0.9
2022-09-18T13:31:08.367Z,1.8
2022-09-18T13:32:08.947Z,6.8
2022-09-18T13:33:09.544Z,1.3
2022-09-18T13:34:10.153Z,1.5
2022-09-18T13:35:10.741Z,1.0
2022-09-18T13:36:11.343Z,1.8
2022-09-18T13:37:11.943Z,1.2
2022-09-18T13:38:12.544Z,1.5
2022-09-18T13:39:13.146Z,3.1
2022-09-18T13:40:14.091Z,0.8
2022-09-18T13:41:14.382Z,2.0
2022-09-18T13:42:14.984Z,1.2
2022-09-18T13:43:15.586Z,1.2
2022-09-18T13:44:16.186Z,2.8
2022-09-18T13:45:16.798Z,2.6
2022-09-18T13:46:17.487Z,3.4
2022-09-18T13:47:18.034Z,1.0
2022-09-18T13:48:18.639Z,1.2
2022-09-18T13:49:19.237Z,1.7
2022-09-18T13:50:19.839Z,0.9
2022-09-18T13:51:20.441Z,1.0
2022-09-18T13:52:21.040Z,1.3